createdAt,value
2023-02-02T00:01:51.191Z,4.60
2023-02-02T00:04:24.648Z,4.57
2023-02-02T00:06:57.097Z,4.59
2023-02-02T00:09:28.961Z,4.60
2023-02-02T00:12:00.150Z,4.62
2023-02-02T00:14:31.066Z,4.65
2023-02-02T00:17:01.546Z,4.68
2023-02-02T00:19:33.578Z,4.69
2023-02-02T00:22:04.288Z,4.71
2023-02-02T00:24:34.724Z,4.71
2023-02-02T00:27:05.301Z,4.70
2023-02-02T00:29:35.754Z,4.72
2023-02-02T00:32:06.928Z,4.73
2023-02-02T00:34:37.791Z,4.71
2023-02-02T00:37:09.304Z,4.68
2023-02-02T00:39:39.790Z,4.66
2023-02-02T00:42:12.073Z,4.63
2023-02-02T00:45:00.474Z,4.61
2023-02-02T00:47:31.006Z,4.60
2023-02-02T00:50:01.480Z,4.63
2023-02-02T00:52:31.930Z,4.68
2023-02-02T00:55:02.358Z,4.67
2023-02-02T00:57:33.005Z,4.67
2023-02-02T01:00:03.528Z,4.68
2023-02-02T01:02:33.971Z,4.67
2023-02-02T01:05:05.423Z,4.66
2023-02-02T01:07:36.948Z,4.62
2023-02-02T01:10:09.780Z,4.57
2023-02-02T01:12:40.348Z,4.54
2023-02-02T01:15:13.451Z,4.53
2023-02-02T01:17:43.931Z,4.53
2023-02-02T01:20:20.077Z,4.57
2023-02-02T01:22:50.599Z,4.60
2023-02-02T01:25:21.358Z,4.61
2023-02-02T01:27:51.952Z,4.64
2023-02-02T01:30:22.551Z,4.65
2023-02-02T01:32:53.012Z,4.65
2023-02-02T01:35:23.819Z,4.65
2023-02-02T01:37:54.519Z,4.67
2023-02-02T01:40:24.967Z,4.68
2023-02-02T01:42:55.444Z,4.67
2023-02-02T01:45:29.241Z,4.67
2023-02-02T01:48:01.334Z,4.67
2023-02-02T01:50:35.751Z,4.66
2023-02-02T01:53:08.736Z,4.62
2023-02-02T01:55:42.421Z,4.64
2023-02-02T01:58:18.231Z,4.66
2023-02-02T02:00:49.107Z,4.67
2023-02-02T02:03:22.255Z,4.69
2023-02-02T02:05:56.268Z,4.71
2023-02-02T02:08:30.327Z,4.74
2023-02-02T02:11:01.142Z,4.76
2023-02-02T02:13:53.908Z,4.77
2023-02-02T02:16:30.725Z,4.77
2023-02-02T02:19:15.149Z,4.77
2023-02-02T02:22:14.890Z,4.77
2023-02-02T02:25:27.995Z,4.78
2023-02-02T02:28:28.142Z,4.77
2023-02-02T02:31:32.200Z,4.76
2023-02-02T02:34:10.547Z,4.76
2023-02-02T02:36:49.680Z,4.82
2023-02-02T02:39:27.480Z,4.88
2023-02-02T02:42:04.252Z,4.93
2023-02-02T02:44:37.408Z,4.98
2023-02-02T02:47:09.518Z,5.02
2023-02-02T02:49:46.466Z,5.03
2023-02-02T02:52:17.535Z,5.03
2023-02-02T02:54:51.337Z,5.05
2023-02-02T02:57:40.537Z,5.05
2023-02-02T03:00:25.589Z,5.05
2023-02-02T03:02:57.917Z,5.03
2023-02-02T03:05:38.420Z,5.02
2023-02-02T03:08:17.909Z,5.00
2023-02-02T03:10:49.921Z,4.97
2023-02-02T03:13:20.964Z,4.95
2023-02-02T03:15:51.446Z,4.93
2023-02-02T03:18:24.500Z,4.91
2023-02-02T03:20:54.932Z,4.89
2023-02-02T03:23:25.631Z,4.95
2023-02-02T03:25:56.804Z,5.00
2023-02-02T03:28:28.599Z,5.01
2023-02-02T03:31:02.213Z,5.02
2023-02-02T03:33:34.346Z,5.02
2023-02-02T03:36:05.191Z,5.02
2023-02-02T03:38:35.616Z,5.01
2023-02-02T03:41:07.421Z,5.01
2023-02-02T03:43:37.831Z,5.01
2023-02-02T03:46:09.117Z,4.99
2023-02-02T03:48:40.462Z,4.97
2023-02-02T03:51:12.881Z,4.94
2023-02-02T03:53:44.366Z,4.91
2023-02-02T03:56:13.299Z,4.90
2023-02-02T03:58:43.959Z,4.89
2023-02-02T04:01:15.776Z,4.87
2023-02-02T04:03:47.027Z,4.86
2023-02-02T04:06:19.902Z,4.86
2023-02-02T04:08:50.353Z,4.86
2023-02-02T04:11:20.950Z,4.89
2023-02-02T04:13:51.361Z,4.94
2023-02-02T04:16:21.963Z,5.00
2023-02-02T04:18:52.411Z,5.04
2023-02-02T04:21:22.839Z,5.07
2023-02-02T04:23:53.521Z,5.12
2023-02-02T04:26:25.724Z,5.14
2023-02-02T04:28:56.875Z,5.14
2023-02-02T04:31:27.477Z,5.15
2023-02-02T04:33:58.086Z,5.15
2023-02-02T04:36:28.928Z,5.15
2023-02-02T04:38:59.630Z,5.14
2023-02-02T04:41:30.045Z,5.13
2023-02-02T04:44:00.455Z,5.13
2023-02-02T04:46:32.159Z,5.14
2023-02-02T04:49:02.556Z,5.12
2023-02-02T04:51:32.976Z,5.11
2023-02-02T04:54:03.417Z,5.10
2023-02-02T04:56:34.287Z,5.10
2023-02-02T04:59:04.704Z,5.08
2023-02-02T05:01:35.153Z,5.07
2023-02-02T05:04:06.078Z,5.12
2023-02-02T05:06:36.677Z,5.17
2023-02-02T05:09:07.223Z,5.22
2023-02-02T05:11:39.045Z,5.26
2023-02-02T05:14:09.691Z,5.29
2023-02-02T05:16:40.464Z,5.31
2023-02-02T05:19:12.643Z,5.32
2023-02-02T05:21:45.581Z,5.31
2023-02-02T05:24:16.249Z,5.30
2023-02-02T05:26:46.778Z,5.29
2023-02-02T05:29:17.362Z,5.27
2023-02-02T05:31:47.842Z,5.26
2023-02-02T05:34:18.816Z,5.25
2023-02-02T05:36:49.459Z,5.24
2023-02-02T05:39:19.909Z,5.23
2023-02-02T05:41:50.330Z,5.23
2023-02-02T05:44:20.732Z,5.22
2023-02-02T05:46:51.228Z,5.22
2023-02-02T05:49:21.658Z,5.24
2023-02-02T05:51:56.077Z,5.29
2023-02-02T05:54:27.201Z,5.33
2023-02-02T05:57:01.149Z,5.37
2023-02-02T05:59:31.626Z,5.39
2023-02-02T06:02:02.043Z,5.41
2023-02-02T06:04:32.495Z,5.41
2023-02-02T06:07:03.043Z,5.41
2023-02-02T06:09:33.575Z,5.41
2023-02-02T06:12:04.185Z,5.40
2023-02-02T06:14:34.667Z,5.37
2023-02-02T06:17:06.814Z,5.32
2023-02-02T06:19:37.437Z,5.28
2023-02-02T06:22:08.095Z,5.26
2023-02-02T06:24:38.561Z,5.23
2023-02-02T06:27:08.971Z,5.22
2023-02-02T06:29:39.456Z,5.20
2023-02-02T06:32:09.952Z,5.21
2023-02-02T06:34:40.430Z,5.21
2023-02-02T06:37:10.858Z,5.17
2023-02-02T06:39:41.313Z,5.14
2023-02-02T06:42:20.836Z,5.11
2023-02-02T06:44:51.982Z,5.06
2023-02-02T06:47:22.417Z,5.02
2023-02-02T06:49:53.009Z,4.94
2023-02-02T06:52:23.463Z,4.89
2023-02-02T06:54:53.963Z,4.86
2023-02-02T06:57:24.572Z,4.88
2023-02-02T06:59:54.963Z,4.90
2023-02-02T07:02:25.409Z,4.93
2023-02-02T07:04:55.903Z,4.95
2023-02-02T07:07:26.416Z,4.95
2023-02-02T07:09:58.162Z,4.97
2023-02-02T07:12:29.192Z,5.00
2023-02-02T07:15:00.385Z,4.99
2023-02-02T07:17:30.970Z,4.96
2023-02-02T07:20:01.406Z,4.95
2023-02-02T07:22:31.823Z,4.94
2023-02-02T07:25:02.273Z,4.92
2023-02-02T07:27:33.112Z,4.96
2023-02-02T07:30:04.178Z,5.01
2023-02-02T07:32:34.599Z,5.03
2023-02-02T07:35:05.656Z,5.05
2023-02-02T07:37:36.087Z,5.04
2023-02-02T07:40:08.476Z,5.05
2023-02-02T07:42:37.392Z,5.05
2023-02-02T07:45:26.842Z,5.07
2023-02-02T07:48:01.661Z,5.06
2023-02-02T07:50:33.030Z,5.02
2023-02-02T07:53:03.535Z,4.99
2023-02-02T07:55:33.990Z,4.99
2023-02-02T07:58:04.420Z,5.03
2023-02-02T08:00:34.984Z,5.07
2023-02-02T08:03:05.548Z,5.11
2023-02-02T08:05:36.052Z,5.15
2023-02-02T08:08:07.694Z,5.16
2023-02-02T08:10:38.113Z,5.17
2023-02-02T08:13:08.594Z,5.17
2023-02-02T08:15:39.027Z,5.19
2023-02-02T08:18:09.504Z,5.20
2023-02-02T08:20:40.049Z,5.21
2023-02-02T08:23:15.689Z,5.21
2023-02-02T08:25:46.154Z,5.26
2023-02-02T08:28:16.641Z,5.31
2023-02-02T08:30:47.415Z,5.37
2023-02-02T08:33:17.879Z,5.41
2023-02-02T08:35:48.417Z,5.43
2023-02-02T08:38:18.935Z,5.44
2023-02-02T08:40:49.699Z,5.46
2023-02-02T08:43:20.122Z,5.46
2023-02-02T08:46:02.186Z,5.42
2023-02-02T08:48:36.684Z,5.41
2023-02-02T08:51:09.229Z,5.40
2023-02-02T08:53:38.123Z,5.41
2023-02-02T08:56:11.562Z,5.42
2023-02-02T08:58:45.816Z,5.45
2023-02-02T09:01:19.482Z,5.49
2023-02-02T09:03:50.342Z,5.56
2023-02-02T09:06:22.272Z,5.61
2023-02-02T09:08:52.725Z,5.63
2023-02-02T09:11:23.527Z,5.65
2023-02-02T09:13:57.458Z,5.64
2023-02-02T09:16:29.062Z,5.61
2023-02-02T09:19:00.517Z,5.63
2023-02-02T09:21:31.197Z,5.67
2023-02-02T09:24:01.680Z,5.69
2023-02-02T09:26:32.124Z,5.69
2023-02-02T09:29:05.460Z,5.71
2023-02-02T09:31:38.521Z,5.73
2023-02-02T09:34:11.219Z,5.77
2023-02-02T09:36:42.641Z,5.81
2023-02-02T09:39:15.202Z,5.82
2023-02-02T09:42:23.129Z,5.80
2023-02-02T09:45:01.159Z,5.80
2023-02-02T09:47:48.135Z,5.79
2023-02-02T09:50:23.300Z,5.77
2023-02-02T09:52:59.735Z,5.75
2023-02-02T09:55:36.353Z,5.75
2023-02-02T09:58:13.969Z,5.76
2023-02-02T10:00:49.163Z,5.76
2023-02-02T10:03:26.360Z,5.74
2023-02-02T10:06:03.133Z,5.71
2023-02-02T10:08:39.941Z,5.72
2023-02-02T10:11:29.019Z,5.75
2023-02-02T10:14:04.199Z,5.77
2023-02-02T10:16:36.591Z,5.80
2023-02-02T10:19:06.374Z,5.76
2023-02-02T10:21:42.433Z,5.70
2023-02-02T10:24:20.343Z,5.64
2023-02-02T10:26:54.511Z,5.58
2023-02-02T10:29:48.965Z,5.50
2023-02-02T10:32:26.172Z,5.40
2023-02-02T10:35:25.101Z,5.34
2023-02-02T10:38:02.745Z,5.36
2023-02-02T10:40:48.894Z,5.39
2023-02-02T10:43:47.681Z,5.40
2023-02-02T10:46:23.421Z,5.42
2023-02-02T10:49:06.591Z,5.38
2023-02-02T10:51:38.036Z,5.35
2023-02-02T10:54:20.557Z,5.35
2023-02-02T10:56:55.273Z,5.42
2023-02-02T10:59:31.117Z,5.46
2023-02-02T11:02:18.993Z,5.47
2023-02-02T11:05:08.748Z,5.44
2023-02-02T11:07:39.580Z,5.42
2023-02-02T11:10:11.682Z,5.49
2023-02-02T11:12:50.991Z,5.58
2023-02-02T11:15:30.221Z,5.66
2023-02-02T11:18:16.415Z,5.68
2023-02-02T11:20:47.520Z,5.64
2023-02-02T11:23:22.078Z,5.66
2023-02-02T11:26:05.353Z,5.60
2023-02-02T11:28:38.619Z,5.47
2023-02-02T11:31:09.167Z,5.38
2023-02-02T11:33:39.875Z,5.32
2023-02-02T11:36:22.903Z,5.36
2023-02-02T11:39:22.396Z,5.48
2023-02-02T11:41:59.260Z,5.65
2023-02-02T11:44:34.229Z,5.82
2023-02-02T11:47:06.367Z,6.02
2023-02-02T11:49:44.550Z,6.15
2023-02-02T11:52:23.092Z,6.20
2023-02-02T11:54:56.303Z,6.21
2023-02-02T11:57:28.859Z,6.17
2023-02-02T12:00:19.605Z,6.07
2023-02-02T12:02:51.423Z,6.07
2023-02-02T12:05:38.015Z,6.22
2023-02-02T12:08:12.677Z,6.35
2023-02-02T12:10:48.103Z,6.45
2023-02-02T12:13:27.574Z,6.47
2023-02-02T12:16:09.060Z,6.44
2023-02-02T12:18:49.097Z,6.38
2023-02-02T12:21:32.041Z,6.33
2023-02-02T12:24:20.568Z,6.21
2023-02-02T12:26:57.414Z,6.09
2023-02-02T12:29:44.549Z,6.00
2023-02-02T12:32:41.744Z,5.90
2023-02-02T12:35:42.556Z,5.84
2023-02-02T12:38:21.895Z,5.74
2023-02-02T12:41:13.933Z,5.68
2023-02-02T12:43:46.611Z,5.59
2023-02-02T12:46:36.657Z,5.51
2023-02-02T12:49:26.918Z,5.46
2023-02-02T12:52:17.686Z,5.50
2023-02-02T12:55:00.135Z,5.56
2023-02-02T12:57:44.214Z,5.57
2023-02-02T13:00:27.027Z,5.57
2023-02-02T13:03:10.299Z,5.53
2023-02-02T13:08:48.822Z,5.45
2023-02-02T13:11:31.426Z,5.45
2023-02-02T13:14:08.397Z,5.61
2023-02-02T13:16:41.818Z,5.69
2023-02-02T13:19:21.970Z,5.78
2023-02-02T13:21:54.861Z,5.84
2023-02-02T13:24:30.813Z,5.88
2023-02-02T13:27:04.173Z,5.88
2023-02-02T13:29:47.713Z,5.89
2023-02-02T13:32:25.961Z,5.94
2023-02-02T13:35:00.171Z,5.96
2023-02-02T13:37:37.870Z,5.93
2023-02-02T13:40:21.855Z,5.92
2023-02-02T13:43:01.341Z,5.95
2023-02-02T13:45:44.795Z,5.93
2023-02-02T13:48:24.403Z,5.92
2023-02-02T13:51:14.194Z,5.93
2023-02-02T13:53:58.588Z,5.85
2023-02-02T13:56:40.485Z,5.76
2023-02-02T13:59:34.842Z,5.71
2023-02-02T14:02:07.472Z,5.66
2023-02-02T14:04:38.927Z,5.67
2023-02-02T14:07:10.755Z,5.68
2023-02-02T14:09:41.197Z,5.67
2023-02-02T14:12:13.231Z,5.62
2023-02-02T14:14:48.420Z,5.59
2023-02-02T14:17:53.421Z,5.57
2023-02-02T14:20:50.271Z,5.53
2023-02-02T14:23:55.663Z,5.52
2023-02-02T14:26:47.923Z,5.52
2023-02-02T14:29:58.505Z,5.48
2023-02-02T14:32:42.071Z,5.51
2023-02-02T14:35:47.590Z,5.60
2023-02-02T14:38:25.327Z,5.63
2023-02-02T14:41:02.813Z,5.63
2023-02-02T14:43:48.077Z,5.62
2023-02-02T14:46:37.277Z,5.60
2023-02-02T14:49:27.405Z,5.59
2023-02-02T14:52:01.377Z,5.60
2023-02-02T14:54:36.695Z,5.60
2023-02-02T14:57:22.985Z,5.63
2023-02-02T14:59:55.132Z,5.61
2023-02-02T15:02:34.860Z,5.59
2023-02-02T15:05:40.317Z,5.58
2023-02-02T15:08:26.356Z,5.55
2023-02-02T15:11:26.708Z,5.56
2023-02-02T15:14:07.329Z,5.59
2023-02-02T15:16:40.720Z,5.61
2023-02-02T15:19:22.198Z,5.62
2023-02-02T15:21:57.600Z,5.63
2023-02-02T15:24:31.471Z,5.62
2023-02-02T15:27:04.701Z,5.59
2023-02-02T15:29:43.179Z,5.53
2023-02-02T15:32:20.552Z,5.46
2023-02-02T15:34:54.892Z,5.39
2023-02-02T15:37:34.320Z,5.32
2023-02-02T15:40:08.598Z,5.25
2023-02-02T15:42:56.591Z,5.19
2023-02-02T15:45:37.909Z,5.13
2023-02-02T15:48:18.449Z,5.03
2023-02-02T15:50:54.665Z,4.95
2023-02-02T15:53:28.114Z,4.88
2023-02-02T15:55:59.756Z,4.84
2023-02-02T15:58:33.118Z,4.83
2023-02-02T16:01:07.006Z,4.78
2023-02-02T16:03:51.468Z,4.72
2023-02-02T16:06:22.676Z,4.67
2023-02-02T16:08:53.178Z,4.63
2023-02-02T16:11:24.888Z,4.56
2023-02-02T16:14:02.837Z,4.49
2023-02-02T16:16:35.119Z,4.44
2023-02-02T16:19:13.039Z,4.40
2023-02-02T16:21:45.504Z,4.33
2023-02-02T16:24:19.018Z,4.27
2023-02-02T16:26:50.679Z,4.23
2023-02-02T16:29:22.221Z,4.19
2023-02-02T16:31:53.311Z,4.15
2023-02-02T16:34:47.437Z,4.14
2023-02-02T16:37:23.271Z,4.11
2023-02-02T16:39:54.236Z,4.07
2023-02-02T16:42:30.371Z,4.02
2023-02-02T16:45:01.580Z,3.98
2023-02-02T16:47:40.098Z,3.96
2023-02-02T16:50:28.976Z,3.92
2023-02-02T16:53:02.692Z,3.90
2023-02-02T16:55:50.492Z,3.89
2023-02-02T16:58:24.840Z,3.85
2023-02-02T17:01:14.966Z,3.77
2023-02-02T17:03:50.510Z,3.71
2023-02-02T17:06:42.109Z,3.67
2023-02-02T17:09:34.326Z,3.64
2023-02-02T17:12:14.242Z,3.61
2023-02-02T17:14:59.531Z,3.61
2023-02-02T17:17:30.391Z,3.59
2023-02-02T17:20:00.913Z,3.56
2023-02-02T17:22:33.810Z,3.55
2023-02-02T17:25:04.684Z,3.53
2023-02-02T17:27:36.852Z,3.51
2023-02-02T17:30:15.175Z,3.49
2023-02-02T17:32:45.833Z,3.47
2023-02-02T17:35:19.771Z,3.45
2023-02-02T17:37:51.884Z,3.42
2023-02-02T17:40:24.529Z,3.41
2023-02-02T17:42:55.752Z,3.39
2023-02-02T17:45:33.626Z,3.37
2023-02-02T17:48:05.595Z,3.35
2023-02-02T17:50:37.819Z,3.34
2023-02-02T17:53:11.116Z,3.31
2023-02-02T17:55:43.594Z,3.29
2023-02-02T17:58:17.562Z,3.28
2023-02-02T18:00:50.822Z,3.28
2023-02-02T18:03:24.466Z,3.29
2023-02-02T18:05:57.645Z,3.30
2023-02-02T18:08:28.221Z,3.31
2023-02-02T18:11:00.150Z,3.32
2023-02-02T18:13:30.624Z,3.31
2023-02-02T18:16:01.116Z,3.31
2023-02-02T18:18:31.612Z,3.30
2023-02-02T18:21:02.821Z,3.28
2023-02-02T18:23:33.215Z,3.26
2023-02-02T18:26:17.568Z,3.21
2023-02-02T18:28:49.681Z,3.17
2023-02-02T18:31:24.044Z,3.17
2023-02-02T18:33:55.041Z,3.16
2023-02-02T18:36:25.758Z,3.15
2023-02-02T18:38:58.080Z,3.15
2023-02-02T18:41:28.593Z,3.16
2023-02-02T18:43:59.041Z,3.15
2023-02-02T18:46:33.950Z,3.14
2023-02-02T18:49:05.046Z,3.13
2023-02-02T18:51:35.797Z,3.12
2023-02-02T18:54:06.507Z,3.12
2023-02-02T18:56:37.137Z,3.16
2023-02-02T18:59:07.916Z,3.19
2023-02-02T19:01:38.356Z,3.19
2023-02-02T19:04:08.921Z,3.19
2023-02-02T19:06:57.081Z,3.20
2023-02-02T19:09:27.594Z,3.19
2023-02-02T19:11:58.905Z,3.19
2023-02-02T19:14:34.520Z,3.18
2023-02-02T19:17:21.383Z,3.16
2023-02-02T19:19:51.906Z,3.12
2023-02-02T19:22:24.496Z,3.10
2023-02-02T19:24:53.391Z,3.08
2023-02-02T19:27:26.659Z,3.04
2023-02-02T19:30:01.573Z,3.02
2023-02-02T19:32:35.181Z,2.97
2023-02-02T19:35:16.642Z,2.90
2023-02-02T19:37:48.503Z,2.83
2023-02-02T19:40:25.076Z,2.79
2023-02-02T19:42:58.597Z,2.75
2023-02-02T19:45:32.925Z,2.72
2023-02-02T19:48:15.381Z,2.71
2023-02-02T19:50:47.707Z,2.69
2023-02-02T19:53:23.935Z,2.67
2023-02-02T19:55:55.024Z,2.64
2023-02-02T19:58:28.301Z,2.62
2023-02-02T20:01:02.109Z,2.60
2023-02-02T20:03:43.062Z,2.58
2023-02-02T20:06:18.027Z,2.55
2023-02-02T20:08:48.497Z,2.52
2023-02-02T20:11:33.021Z,2.48
2023-02-02T20:14:21.532Z,2.43
2023-02-02T20:16:54.080Z,2.37
2023-02-02T20:19:24.254Z,2.33
2023-02-02T20:21:56.131Z,2.27
2023-02-02T20:24:28.891Z,2.23
2023-02-02T20:27:05.597Z,2.19
2023-02-02T20:29:44.156Z,2.18
2023-02-02T20:32:22.484Z,2.17
2023-02-02T20:34:54.051Z,2.17
2023-02-02T20:37:29.156Z,2.18
2023-02-02T20:40:02.192Z,2.26
2023-02-02T20:42:32.871Z,2.29
2023-02-02T20:45:03.289Z,2.34
2023-02-02T20:47:34.099Z,2.37
2023-02-02T20:50:05.090Z,2.41
2023-02-02T20:52:36.079Z,2.45
2023-02-02T20:55:07.725Z,2.45
2023-02-02T20:57:40.315Z,2.43
2023-02-02T21:00:11.612Z,2.42
2023-02-02T21:02:42.155Z,2.39
2023-02-02T21:05:12.880Z,2.36
2023-02-02T21:07:43.599Z,2.35
2023-02-02T21:10:14.488Z,2.31
2023-02-02T21:12:46.810Z,2.23
2023-02-02T21:15:20.340Z,2.16
2023-02-02T21:17:50.828Z,2.10
2023-02-02T21:20:22.323Z,2.04
2023-02-02T21:22:52.738Z,2.00
2023-02-02T21:25:23.298Z,1.99
2023-02-02T21:28:00.327Z,1.94
2023-02-02T21:30:31.288Z,1.91
2023-02-02T21:33:02.211Z,1.86
2023-02-02T21:35:33.065Z,1.81
2023-02-02T21:38:10.937Z,1.76
2023-02-02T21:40:42.343Z,1.73
2023-02-02T21:43:18.669Z,1.70
2023-02-02T21:45:52.917Z,1.68
2023-02-02T21:48:33.747Z,1.64
2023-02-02T21:51:21.136Z,1.60
2023-02-02T21:53:51.938Z,1.53
2023-02-02T21:56:29.218Z,1.52
2023-02-02T21:59:02.003Z,1.48
2023-02-02T22:01:37.670Z,1.44
2023-02-02T22:04:16.967Z,1.41
2023-02-02T22:06:49.064Z,1.38
2023-02-02T22:09:25.683Z,1.41
2023-02-02T22:11:59.563Z,1.46
2023-02-02T22:14:38.172Z,1.48
2023-02-02T22:17:22.800Z,1.50
2023-02-02T22:19:55.931Z,1.53
2023-02-02T22:22:32.071Z,1.53
2023-02-02T22:25:07.422Z,1.55
2023-02-02T22:27:43.618Z,1.59
2023-02-02T22:30:26.977Z,1.60
2023-02-02T22:32:57.926Z,1.62
2023-02-02T22:35:28.345Z,1.62
2023-02-02T22:37:58.760Z,1.60
2023-02-02T22:40:29.998Z,1.59
2023-02-02T22:43:02.278Z,1.59
2023-02-02T22:45:32.779Z,1.58
2023-02-02T22:48:03.365Z,1.58
2023-02-02T22:50:35.243Z,1.58
2023-02-02T22:53:06.119Z,1.57
2023-02-02T22:55:36.711Z,1.57
2023-02-02T22:58:07.188Z,1.58
2023-02-02T23:00:37.718Z,1.56
2023-02-02T23:03:08.304Z,1.52
2023-02-02T23:05:38.802Z,1.48
2023-02-02T23:08:09.632Z,1.44
2023-02-02T23:10:40.204Z,1.40
2023-02-02T23:13:10.619Z,1.38
2023-02-02T23:15:41.096Z,1.35
2023-02-02T23:18:11.612Z,1.34
2023-02-02T23:20:42.038Z,1.32
2023-02-02T23:23:12.435Z,1.31
2023-02-02T23:25:42.854Z,1.28
2023-02-02T23:28:13.323Z,1.25
2023-02-02T23:30:44.014Z,1.20
2023-02-02T23:33:14.572Z,1.14
2023-02-02T23:35:44.996Z,1.11
2023-02-02T23:38:17.881Z,1.08
2023-02-02T23:40:48.304Z,1.06
2023-02-02T23:43:18.710Z,1.10
2023-02-02T23:45:49.286Z,1.11
2023-02-02T23:48:19.700Z,1.12
2023-02-02T23:50:50.326Z,1.17
2023-02-02T23:53:21.050Z,1.22
2023-02-02T23:55:52.164Z,1.28
2023-02-02T23:58:22.596Z,1.30
